Aérodrome :
LOGIN :

S'inscrire | Disclaimer

   EN    FR    IT 

 










Légende :    VFR   VFR Marginal   IFR   IFR Intensif   IFR Très Intensif
Visi : 
Plafond : 
>= 8 km
>= 3000ft
5 à 8 km
1000 à 3000 ft
1500m à 5 km
500 à 1000 ft
800 à 1500m
200 à 500 ft
< 800m
< 200 ft
Symboles :   Orages  Brouillard  Fortes neiges  Fortes précipitations  Vent > 20 kt
SIGMETs :   Divers  Orages  Givrage  Turbulence  Onde Orograph.  Cendres Volcan.






- Altitude de l'aérodrome : 821 ft
- Code IATA : LYS


LFLL - Lyon St Exupéry / Satolas

DERNIER METAR :
  • 251900Z 34014KT CAVOK 20/07 Q1021 NOSIG

METARs EXPIRÉS :
  • 251830Z 34015KT CAVOK 20/07 Q1020 NOSIG
  • 251800Z 35015KT CAVOK 21/08 Q1020 NOSIG
  • 251730Z 35015KT CAVOK 21/08 Q1019 NOSIG
  • 251700Z 35014KT CAVOK 22/08 Q1019 NOSIG
  • 251630Z 35014KT 310V010 CAVOK 22/07 Q1019 NOSIG

TAF TAF LFLL
Valide du 25 à 18h jusqu'au 27 à 00h UTC


251700Z 2518/2624 35015KT CAVOK
TEMPO 2521/2608 35005KT



MET'MAP, la Météo Aéronautique d'un coup d'oeil ! - Copyright ORBIFLY Décembre 2007 - Disclaimer

ORBIFLY MET'MAP TEAM :

Programmation & Développement : Alexandra Zaïnal
Sur une idée originale de : Baudouin d'Aumeries
Soutien technique & logistique : Manuel Goepfert
Assistance : Marc-Olivier Méhu

Contact : metmap@orbifly.com




SOURCES & CREDITS :

   NOAA